createdAt,value
2022-07-26T00:02:03.611Z,1.75
2022-07-26T00:04:31.504Z,2.45
2022-07-26T00:06:59.597Z,1.80
2022-07-26T00:09:27.606Z,1.53
2022-07-26T00:11:55.311Z,1.80
2022-07-26T00:14:23.341Z,1.50
2022-07-26T00:16:51.299Z,1.50
2022-07-26T00:19:19.099Z,1.38
2022-07-26T00:21:46.840Z,1.58
2022-07-26T00:24:14.486Z,1.88
2022-07-26T00:26:42.171Z,1.85
2022-07-26T00:29:10.189Z,1.40
2022-07-26T00:31:38.067Z,1.13
2022-07-26T00:34:05.771Z,2.00
2022-07-26T00:36:33.419Z,1.92
2022-07-26T00:39:01.926Z,1.63
2022-07-26T00:41:29.571Z,1.70
2022-07-26T00:43:59.520Z,1.80
2022-07-26T00:46:27.736Z,1.98
2022-07-26T00:48:55.625Z,2.00
2022-07-26T00:51:23.974Z,1.52
2022-07-26T00:53:51.715Z,1.75
2022-07-26T00:56:19.883Z,1.75
2022-07-26T00:58:48.476Z,1.90
2022-07-26T01:01:16.251Z,1.60
2022-07-26T01:03:44.432Z,1.55
2022-07-26T01:06:12.428Z,1.43
2022-07-26T01:08:41.054Z,1.95
2022-07-26T01:11:09.500Z,1.77
2022-07-26T01:13:37.212Z,1.50
2022-07-26T01:16:05.170Z,1.90
2022-07-26T01:18:33.145Z,1.42
2022-07-26T01:21:09.031Z,2.65
2022-07-26T01:23:44.104Z,2.90
2022-07-26T01:26:12.659Z,1.60
2022-07-26T01:28:42.802Z,2.05
2022-07-26T01:31:11.074Z,1.75
2022-07-26T01:33:38.862Z,2.70
2022-07-26T01:36:06.725Z,1.77
2022-07-26T01:38:34.636Z,2.00
2022-07-26T01:41:02.546Z,2.10
2022-07-26T01:43:30.450Z,1.80
2022-07-26T01:45:58.257Z,2.20
2022-07-26T01:48:26.322Z,3.58
2022-07-26T01:50:54.091Z,2.00
2022-07-26T01:53:23.012Z,2.30
2022-07-26T01:55:50.752Z,2.28
2022-07-26T01:58:18.535Z,1.92
2022-07-26T02:00:46.361Z,2.50
2022-07-26T02:03:14.075Z,2.28
2022-07-26T02:05:41.779Z,3.00
2022-07-26T02:08:10.810Z,1.95
2022-07-26T02:13:25.428Z,2.03
2022-07-26T02:15:53.340Z,1.75
2022-07-26T02:18:21.071Z,2.03
2022-07-26T02:20:48.926Z,1.75
2022-07-26T02:23:16.575Z,1.75
2022-07-26T02:25:44.238Z,1.77
2022-07-26T02:28:12.113Z,2.08
2022-07-26T02:30:39.931Z,1.92
2022-07-26T02:33:08.064Z,2.20
2022-07-26T02:35:36.083Z,2.35
2022-07-26T02:38:09.718Z,2.25
2022-07-26T02:40:39.354Z,2.35
2022-07-26T02:43:09.435Z,2.17
2022-07-26T02:45:37.491Z,2.17
2022-07-26T02:48:05.446Z,1.50
2022-07-26T02:50:33.301Z,2.22
2022-07-26T02:53:01.104Z,2.47
2022-07-26T02:55:28.968Z,2.40
2022-07-26T02:57:56.663Z,2.90
2022-07-26T03:00:26.330Z,2.67
2022-07-26T03:02:54.434Z,3.30
2022-07-26T03:05:22.634Z,3.90
2022-07-26T03:07:50.320Z,2.67
2022-07-26T03:10:19.196Z,3.50
2022-07-26T03:15:14.306Z,4.13
2022-07-26T03:17:43.085Z,4.13
2022-07-26T03:20:12.141Z,3.95
2022-07-26T03:22:39.936Z,4.97
2022-07-26T03:25:07.841Z,4.88
2022-07-26T03:27:35.757Z,4.22
2022-07-26T03:30:04.846Z,4.20
2022-07-26T03:32:32.498Z,5.22
2022-07-26T03:35:00.112Z,4.95
2022-07-26T03:37:27.767Z,5.00
2022-07-26T03:40:17.435Z,4.78
2022-07-26T03:42:46.557Z,4.32
2022-07-26T03:45:15.586Z,4.53
2022-07-26T03:47:44.009Z,5.15
2022-07-26T03:50:14.045Z,4.15
2022-07-26T03:52:42.205Z,4.00
2022-07-26T03:55:28.855Z,3.67
2022-07-26T03:57:57.624Z,5.03
2022-07-26T04:00:25.525Z,4.65
2022-07-26T04:02:53.385Z,6.03
2022-07-26T04:05:23.597Z,4.22
2022-07-26T04:07:54.051Z,4.65
2022-07-26T04:10:23.258Z,4.22
2022-07-26T04:12:50.980Z,5.13
2022-07-26T04:15:19.330Z,4.30
2022-07-26T04:17:48.631Z,3.60
2022-07-26T04:20:16.463Z,3.72
2022-07-26T04:22:45.160Z,4.30
2022-07-26T04:25:13.043Z,3.30
2022-07-26T04:27:40.855Z,3.42
2022-07-26T04:30:14.270Z,3.92
2022-07-26T04:32:43.709Z,4.07
2022-07-26T04:35:13.740Z,5.28
2022-07-26T04:37:42.891Z,3.80
2022-07-26T04:40:15.713Z,4.20
2022-07-26T04:42:44.039Z,3.85
2022-07-26T04:45:12.865Z,4.05
2022-07-26T04:50:12.730Z,5.78
2022-07-26T04:52:40.511Z,5.32
2022-07-26T04:55:09.516Z,3.83
2022-07-26T05:00:21.250Z,2.42
2022-07-26T05:02:51.736Z,3.83
2022-07-26T05:05:19.804Z,2.80
2022-07-26T05:07:52.616Z,2.88
2022-07-26T05:10:21.748Z,2.33
2022-07-26T05:12:49.474Z,2.55
2022-07-26T05:15:17.167Z,2.85
2022-07-26T05:17:45.094Z,3.10
2022-07-26T05:20:16.454Z,2.78
2022-07-26T05:22:45.435Z,2.38
2022-07-26T05:25:13.227Z,3.20
2022-07-26T05:27:41.836Z,3.47
2022-07-26T05:30:10.855Z,2.45
2022-07-26T05:35:07.563Z,3.08
2022-07-26T05:40:07.317Z,3.17
2022-07-26T05:42:34.984Z,2.92
2022-07-26T05:45:03.126Z,4.50
2022-07-26T05:47:31.408Z,4.20
2022-07-26T05:49:59.251Z,4.00
2022-07-26T05:52:27.031Z,4.25
2022-07-26T05:54:54.714Z,4.85
2022-07-26T05:57:22.739Z,5.55
2022-07-26T05:59:50.667Z,4.45
2022-07-26T06:02:18.459Z,7.97
2022-07-26T06:04:47.501Z,8.32
2022-07-26T06:07:16.149Z,9.10
2022-07-26T06:09:44.006Z,8.35
2022-07-26T06:12:11.618Z,13.25
2022-07-26T06:14:39.432Z,8.75
2022-07-26T06:17:07.497Z,9.18
2022-07-26T06:19:35.286Z,10.50
2022-07-26T06:22:03.104Z,9.98
2022-07-26T06:24:31.409Z,6.43
2022-07-26T06:27:05.266Z,5.67
2022-07-26T06:29:33.770Z,6.82
2022-07-26T06:32:01.419Z,6.55
2022-07-26T06:34:29.128Z,4.88
2022-07-26T06:36:56.869Z,4.78
2022-07-26T06:39:24.816Z,4.75
2022-07-26T06:41:52.490Z,4.75
2022-07-26T06:44:23.067Z,3.80
2022-07-26T06:46:50.985Z,4.30
2022-07-26T06:49:22.427Z,4.57
2022-07-26T06:51:50.703Z,4.25
2022-07-26T06:54:18.873Z,3.45
2022-07-26T06:56:47.054Z,4.00
2022-07-26T06:59:14.739Z,4.20
2022-07-26T07:01:57.746Z,4.25
2022-07-26T07:04:32.380Z,4.20
2022-07-26T07:07:05.882Z,3.63
2022-07-26T07:09:37.975Z,3.33
2022-07-26T07:12:10.385Z,2.50
2022-07-26T07:14:39.834Z,3.47
2022-07-26T07:19:40.782Z,4.47
2022-07-26T07:22:12.273Z,3.58
2022-07-26T07:24:41.997Z,4.97
2022-07-26T07:29:41.464Z,4.72
2022-07-26T07:32:18.115Z,4.68
2022-07-26T07:34:47.880Z,4.40
2022-07-26T07:37:18.203Z,4.88
2022-07-26T07:39:50.643Z,5.05
2022-07-26T07:42:19.939Z,4.43
2022-07-26T07:44:50.398Z,8.48
2022-07-26T07:47:18.785Z,5.10
2022-07-26T07:49:46.541Z,4.40
2022-07-26T07:52:14.308Z,2.70
2022-07-26T07:54:43.163Z,2.47
2022-07-26T07:57:11.571Z,3.10
2022-07-26T07:59:41.698Z,2.95
2022-07-26T08:02:09.946Z,16.58
2022-07-26T08:04:37.967Z,2.63
2022-07-26T08:07:06.028Z,4.00
2022-07-26T08:09:34.514Z,4.07
2022-07-26T08:12:02.881Z,4.50
2022-07-26T08:14:30.691Z,4.07
2022-07-26T08:16:58.515Z,6.05
2022-07-26T08:19:26.464Z,7.35
2022-07-26T08:22:08.826Z,9.68
2022-07-26T08:24:36.475Z,11.05
2022-07-26T08:27:04.569Z,10.73
2022-07-26T08:29:32.204Z,10.27
2022-07-26T08:32:00.392Z,9.25
2022-07-26T08:34:28.288Z,6.63
2022-07-26T08:37:15.995Z,7.00
2022-07-26T08:39:43.716Z,6.15
2022-07-26T08:42:22.361Z,6.53
2022-07-26T08:44:51.560Z,8.52
2022-07-26T08:47:39.992Z,7.78
2022-07-26T08:50:09.725Z,7.63
2022-07-26T08:52:43.322Z,8.37
2022-07-26T08:55:11.715Z,9.23
2022-07-26T08:57:39.507Z,6.85
2022-07-26T09:00:31.710Z,6.90
2022-07-26T09:03:01.397Z,6.88
2022-07-26T09:05:36.291Z,5.78
2022-07-26T09:08:27.928Z,4.82
2022-07-26T09:10:56.349Z,4.43
2022-07-26T09:13:24.048Z,3.95
2022-07-26T09:16:11.659Z,4.93
2022-07-26T09:18:39.425Z,5.03
2022-07-26T09:21:07.016Z,5.20
2022-07-26T09:23:41.518Z,4.35
2022-07-26T09:26:09.095Z,4.97
2022-07-26T09:28:37.416Z,2.13
2022-07-26T09:31:13.027Z,2.10
2022-07-26T09:33:46.406Z,1.80
2022-07-26T09:36:15.339Z,3.28
2022-07-26T09:41:34.044Z,2.65
2022-07-26T09:44:19.139Z,1.73
2022-07-26T09:46:55.171Z,2.13
2022-07-26T09:49:27.208Z,2.10
2022-07-26T09:52:17.000Z,2.28
2022-07-26T09:54:46.883Z,2.17
2022-07-26T09:57:19.428Z,1.58
2022-07-26T09:59:47.421Z,2.33
2022-07-26T10:02:15.340Z,2.08
2022-07-26T10:04:43.599Z,2.05
2022-07-26T10:07:11.453Z,2.27
2022-07-26T10:10:04.610Z,2.15
2022-07-26T10:12:33.892Z,1.60
2022-07-26T10:15:01.615Z,1.90
2022-07-26T10:17:31.374Z,1.45
2022-07-26T10:20:01.950Z,1.98
2022-07-26T10:22:35.284Z,1.52
2022-07-26T10:25:18.263Z,2.13
2022-07-26T10:27:47.048Z,2.15
2022-07-26T10:30:22.492Z,1.48
2022-07-26T10:33:00.737Z,2.63
2022-07-26T10:35:34.615Z,1.20
2022-07-26T10:38:07.934Z,1.27
2022-07-26T10:40:37.303Z,1.90
2022-07-26T10:43:40.059Z,2.58
2022-07-26T10:46:17.772Z,1.95
2022-07-26T10:49:07.006Z,1.83
2022-07-26T10:51:39.751Z,2.08
2022-07-26T10:54:10.521Z,2.17
2022-07-26T10:56:40.343Z,2.60
2022-07-26T10:59:08.941Z,2.53
2022-07-26T11:01:40.130Z,2.80
2022-07-26T11:04:21.829Z,2.50
2022-07-26T11:06:49.731Z,1.70
2022-07-26T11:09:20.738Z,1.65
2022-07-26T11:11:51.789Z,1.63
2022-07-26T11:14:19.821Z,1.38
2022-07-26T11:16:50.135Z,3.67
2022-07-26T11:19:27.607Z,1.42
2022-07-26T11:21:58.735Z,1.25
2022-07-26T11:24:27.306Z,0.80
2022-07-26T11:26:55.719Z,1.23
2022-07-26T11:29:40.635Z,1.42
2022-07-26T11:32:27.354Z,0.90
2022-07-26T11:35:00.370Z,1.58
2022-07-26T11:37:28.646Z,1.05
2022-07-26T11:39:56.418Z,2.25
2022-07-26T11:42:24.187Z,0.88
2022-07-26T11:44:53.613Z,0.88
2022-07-26T11:47:25.324Z,0.95
2022-07-26T11:50:22.134Z,1.60
2022-07-26T11:52:42.714Z,1.45
2022-07-26T11:55:10.403Z,1.40
2022-07-26T11:57:38.254Z,1.15
2022-07-26T12:00:06.979Z,1.17
2022-07-26T12:02:42.146Z,0.80
2022-07-26T12:05:16.164Z,1.00
2022-07-26T12:08:05.303Z,0.85
2022-07-26T12:10:33.465Z,1.13
2022-07-26T12:13:12.850Z,1.17
2022-07-26T12:15:53.180Z,1.20
2022-07-26T12:18:31.449Z,1.10
2022-07-26T12:21:06.582Z,1.00
2022-07-26T12:23:49.621Z,1.50
2022-07-26T12:26:24.991Z,1.17
2022-07-26T12:28:54.027Z,0.85
2022-07-26T12:33:54.106Z,0.98
2022-07-26T12:36:27.819Z,0.83
2022-07-26T12:38:59.144Z,1.08
2022-07-26T12:41:37.689Z,0.65
2022-07-26T12:44:08.781Z,0.60
2022-07-26T12:46:37.430Z,1.13
2022-07-26T12:49:06.154Z,0.83
2022-07-26T12:54:03.946Z,1.02
2022-07-26T12:56:33.045Z,1.30
2022-07-26T12:59:03.434Z,0.70
2022-07-26T13:01:34.666Z,0.70
2022-07-26T13:04:03.414Z,1.08
2022-07-26T13:06:33.017Z,0.80
2022-07-26T13:09:01.093Z,0.50
2022-07-26T13:11:28.785Z,0.67
2022-07-26T13:13:56.549Z,0.73
2022-07-26T13:16:25.165Z,2.05
2022-07-26T13:21:20.410Z,1.15
2022-07-26T13:23:48.127Z,2.40
2022-07-26T13:26:16.038Z,1.70
2022-07-26T13:28:44.057Z,2.60
2022-07-26T13:31:13.000Z,2.35
2022-07-26T13:33:40.843Z,2.00
2022-07-26T13:36:08.795Z,2.88
2022-07-26T13:38:36.464Z,2.65
2022-07-26T13:41:04.618Z,2.20
2022-07-26T13:46:00.622Z,2.22
2022-07-26T13:48:29.129Z,2.03
2022-07-26T13:50:57.697Z,2.85
2022-07-26T13:53:25.727Z,2.50
2022-07-26T13:55:53.476Z,2.60
2022-07-26T13:58:21.817Z,2.75
2022-07-26T14:00:49.742Z,4.07
2022-07-26T14:03:17.947Z,3.33
2022-07-26T14:05:45.776Z,3.83
2022-07-26T14:08:13.764Z,3.58
2022-07-26T14:10:41.715Z,3.40
2022-07-26T14:13:10.069Z,4.35
2022-07-26T14:15:37.925Z,4.45
2022-07-26T14:18:05.666Z,3.33
2022-07-26T14:20:33.483Z,2.65
2022-07-26T14:23:01.203Z,2.28
2022-07-26T14:25:28.916Z,1.80
2022-07-26T14:27:56.734Z,2.17
2022-07-26T14:30:24.531Z,1.60
2022-07-26T14:32:52.275Z,2.20
2022-07-26T14:35:20.044Z,1.70
2022-07-26T14:37:47.798Z,2.28
2022-07-26T14:40:17.134Z,2.70
2022-07-26T14:42:46.434Z,2.60
2022-07-26T14:45:14.620Z,2.75
2022-07-26T14:47:42.920Z,2.63
2022-07-26T14:50:12.465Z,2.35
2022-07-26T14:52:42.225Z,2.45
2022-07-26T14:55:11.019Z,2.33
2022-07-26T15:00:14.274Z,1.40
2022-07-26T15:02:47.211Z,1.40
2022-07-26T15:05:15.824Z,1.58
2022-07-26T15:07:44.157Z,2.25
2022-07-26T15:10:14.432Z,1.50
2022-07-26T15:12:43.387Z,1.83
2022-07-26T15:15:11.451Z,2.15
2022-07-26T15:17:39.226Z,2.95
2022-07-26T15:20:07.762Z,3.42
2022-07-26T15:22:35.697Z,3.97
2022-07-26T15:25:03.934Z,3.27
2022-07-26T15:27:31.860Z,3.55
2022-07-26T15:30:04.389Z,4.30
2022-07-26T15:32:34.275Z,4.38
2022-07-26T15:35:02.450Z,3.63
2022-07-26T15:37:30.243Z,4.68
2022-07-26T15:39:59.119Z,4.70
2022-07-26T15:42:29.873Z,3.15
2022-07-26T15:44:59.120Z,3.50
2022-07-26T15:47:53.027Z,3.80
2022-07-26T15:55:18.270Z,3.45
2022-07-26T15:57:47.124Z,3.65
2022-07-26T16:00:16.338Z,3.50
2022-07-26T16:02:44.310Z,2.83
2022-07-26T16:05:12.869Z,3.73
2022-07-26T16:07:41.776Z,3.17
2022-07-26T16:10:15.058Z,3.03
2022-07-26T16:12:43.506Z,2.03
2022-07-26T16:15:12.091Z,2.00
2022-07-26T16:17:40.124Z,1.92
2022-07-26T16:20:08.264Z,1.50
2022-07-26T16:22:39.407Z,1.35
2022-07-26T16:25:07.915Z,1.30
2022-07-26T16:27:35.706Z,1.50
2022-07-26T16:30:04.430Z,1.65
2022-07-26T16:32:32.091Z,1.25
2022-07-26T16:35:00.231Z,1.00
2022-07-26T16:37:27.809Z,1.10
2022-07-26T16:39:55.835Z,1.15
2022-07-26T16:42:23.724Z,1.40
2022-07-26T16:44:51.677Z,1.35
2022-07-26T16:47:19.778Z,1.00
2022-07-26T16:49:47.570Z,1.10
2022-07-26T16:52:15.872Z,1.00
2022-07-26T16:54:43.947Z,1.30
2022-07-26T16:57:11.826Z,1.20
2022-07-26T16:59:39.614Z,1.70
2022-07-26T17:02:09.183Z,1.50
2022-07-26T17:04:37.131Z,1.52
2022-07-26T17:07:24.507Z,1.92
2022-07-26T17:09:53.118Z,1.35
2022-07-26T17:12:21.144Z,2.03
2022-07-26T17:14:49.096Z,1.73
2022-07-26T17:17:16.728Z,1.65
2022-07-26T17:19:44.592Z,1.50
2022-07-26T17:22:12.255Z,1.63
2022-07-26T17:24:40.076Z,1.20
2022-07-26T17:27:07.988Z,1.05
2022-07-26T17:29:35.781Z,1.13
2022-07-26T17:32:03.675Z,0.77
2022-07-26T17:34:31.396Z,1.50
2022-07-26T17:37:00.766Z,1.17
2022-07-26T17:39:51.764Z,0.93
2022-07-26T17:42:18.718Z,1.25
2022-07-26T17:44:46.889Z,1.38
2022-07-26T17:47:28.044Z,0.90
2022-07-26T17:52:52.058Z,0.80
2022-07-26T17:55:21.021Z,1.05
2022-07-26T17:57:51.228Z,0.88
2022-07-26T18:00:21.359Z,0.80
2022-07-26T18:02:49.661Z,1.02
2022-07-26T18:05:19.559Z,1.38
2022-07-26T18:07:47.487Z,0.60
2022-07-26T18:10:15.517Z,2.10
2022-07-26T18:12:43.889Z,0.97
2022-07-26T18:15:12.286Z,1.17
2022-07-26T18:17:40.672Z,0.95
2022-07-26T18:20:09.529Z,0.77
2022-07-26T18:25:06.460Z,0.60
2022-07-26T18:27:35.478Z,1.05
2022-07-26T18:30:05.245Z,1.40
2022-07-26T18:32:36.920Z,1.02
2022-07-26T18:35:06.587Z,0.88
2022-07-26T18:37:34.359Z,0.80
2022-07-26T18:40:02.238Z,1.20
2022-07-26T18:42:30.193Z,1.10
2022-07-26T18:44:58.218Z,1.03
2022-07-26T18:47:26.256Z,0.90
2022-07-26T18:49:54.238Z,0.73
2022-07-26T18:52:31.667Z,1.30
2022-07-26T18:55:07.359Z,0.60
2022-07-26T18:57:39.407Z,0.60
2022-07-26T19:00:09.978Z,0.57
2022-07-26T19:02:37.745Z,0.70
2022-07-26T19:05:07.764Z,0.85
2022-07-26T19:07:37.840Z,0.50
2022-07-26T19:10:10.317Z,0.55
2022-07-26T19:12:38.369Z,0.45
2022-07-26T19:15:08.495Z,0.70
2022-07-26T19:17:37.576Z,0.60
2022-07-26T19:20:06.849Z,2.55
2022-07-26T19:22:35.482Z,0.82
2022-07-26T19:25:04.173Z,1.23
2022-07-26T19:27:32.156Z,0.50
2022-07-26T19:30:00.380Z,0.80
2022-07-26T19:32:33.131Z,0.45
2022-07-26T19:35:01.408Z,0.98
2022-07-26T19:37:29.340Z,0.80
2022-07-26T19:40:00.431Z,1.50
2022-07-26T19:42:32.234Z,1.00
2022-07-26T19:45:00.673Z,0.90
2022-07-26T19:47:29.857Z,0.85
2022-07-26T19:49:57.957Z,0.82
2022-07-26T19:52:25.880Z,1.10
2022-07-26T19:54:54.053Z,0.80
2022-07-26T19:57:22.447Z,0.70
2022-07-26T19:59:50.777Z,0.80
2022-07-26T20:02:19.018Z,0.53
2022-07-26T20:04:47.306Z,0.57
2022-07-26T20:07:19.784Z,0.93
2022-07-26T20:09:49.754Z,2.50
2022-07-26T20:12:19.305Z,0.90
2022-07-26T20:14:50.557Z,0.73
2022-07-26T20:17:18.638Z,1.02
2022-07-26T20:19:46.455Z,1.27
2022-07-26T20:22:14.356Z,1.20
2022-07-26T20:24:45.369Z,0.77
2022-07-26T20:27:13.068Z,0.80
2022-07-26T20:29:40.852Z,1.58
2022-07-26T20:32:10.036Z,0.90
2022-07-26T20:34:38.287Z,0.90
2022-07-26T20:37:06.776Z,0.90
2022-07-26T20:39:35.988Z,0.90
2022-07-26T20:44:31.353Z,0.95
2022-07-26T20:46:59.533Z,1.30
2022-07-26T20:49:27.250Z,0.65
2022-07-26T20:51:56.612Z,0.82
2022-07-26T20:54:24.451Z,0.95
2022-07-26T20:56:52.258Z,1.20
2022-07-26T20:59:20.623Z,1.25
2022-07-26T21:01:49.138Z,0.90
2022-07-26T21:04:17.224Z,1.20
2022-07-26T21:06:46.998Z,1.25
2022-07-26T21:09:14.943Z,1.73
2022-07-26T21:11:42.922Z,4.47
2022-07-26T21:14:10.987Z,5.47
2022-07-26T21:16:39.002Z,4.30
2022-07-26T21:19:06.733Z,3.92
2022-07-26T21:21:36.554Z,2.80
2022-07-26T21:24:05.943Z,2.80
2022-07-26T21:26:34.094Z,2.13
2022-07-26T21:29:01.740Z,1.90
2022-07-26T21:31:29.457Z,1.83
2022-07-26T21:33:57.325Z,3.38
2022-07-26T21:36:25.135Z,1.55
2022-07-26T21:53:40.159Z,1.15
2022-07-26T22:11:01.411Z,1.80
2022-07-26T22:13:29.164Z,2.08
2022-07-26T22:15:56.875Z,2.00
2022-07-26T22:18:24.754Z,3.42
2022-07-26T22:20:53.802Z,1.98
2022-07-26T22:23:31.920Z,1.88
2022-07-26T22:26:04.957Z,2.38
2022-07-26T22:28:34.427Z,2.45
2022-07-26T22:31:02.346Z,1.75
2022-07-26T22:35:58.650Z,2.95
2022-07-26T22:38:26.389Z,1.75
2022-07-26T22:40:54.113Z,2.38
2022-07-26T22:43:21.840Z,2.60
2022-07-26T22:45:49.465Z,2.03
2022-07-26T22:48:17.348Z,1.85
2022-07-26T22:50:45.205Z,1.90
2022-07-26T22:53:13.025Z,2.38
2022-07-26T22:55:40.663Z,3.45
2022-07-26T22:58:08.420Z,3.65
2022-07-26T23:00:36.211Z,2.80
2022-07-26T23:03:04.397Z,3.72
2022-07-26T23:05:45.708Z,2.50
2022-07-26T23:08:44.295Z,3.47
2022-07-26T23:11:02.626Z,1.90
2022-07-26T23:13:30.417Z,1.52
2022-07-26T23:16:00.853Z,1.70
2022-07-26T23:18:30.837Z,2.30
2022-07-26T23:20:59.077Z,2.55
2022-07-26T23:23:29.303Z,2.45
2022-07-26T23:25:59.821Z,2.00
2022-07-26T23:31:08.317Z,2.77
2022-07-26T23:33:52.814Z,1.95
2022-07-26T23:36:25.737Z,2.15
2022-07-26T23:38:58.583Z,2.17
2022-07-26T23:41:27.587Z,3.33
2022-07-26T23:46:24.056Z,2.05
2022-07-26T23:48:52.714Z,2.72
2022-07-26T23:51:21.197Z,2.17
2022-07-26T23:53:49.317Z,2.50
2022-07-26T23:56:17.544Z,2.13
2022-07-26T23:58:45.721Z,2.97
